Time;durP1;ratioP1;P1;durP2;ratioP2;P2;SDS_P1;SDS_P2;PMS_P1;PMS_P2;Temp;Humidity;BMP_temperature;BMP_pressure;BME280_temperature;BME280_humidity;BME280_pressure;Samples;Min_cycle;Max_cycle;Signal;HPM_P1;HPM_P2
2023/06/29 00:00:23;;;;;;;3.05;2.55;;;;;;;20.28;53.37;95765.22;5009278;28;20226;-85
2023/06/29 00:02:49;;;;;;;2.80;2.60;;;;;;;20.21;53.56;95754.09;5007529;28;20684;-85
2023/06/29 00:05:18;;;;;;;3.30;2.70;;;;;;;20.18;53.73;95749.34;5008876;28;20203;-85
2023/06/29 00:07:44;;;;;;;2.40;2.20;;;;;;;20.21;53.58;95748.06;5009230;28;20210;-85
2023/06/29 00:10:13;;;;;;;3.17;2.50;;;;;;;20.16;53.65;95746.16;5009126;28;20206;-86
2023/06/29 00:12:40;;;;;;;4.40;2.90;;;;;;;20.13;54.01;95741.41;5008391;28;20591;-86
2023/06/29 00:15:08;;;;;;;3.80;2.80;;;;;;;20.05;53.90;95740.97;5009021;28;20234;-87
2023/06/29 00:17:34;;;;;;;2.70;2.50;;;;;;;19.96;54.44;95737.94;5007374;28;20213;-86
2023/06/29 00:20:02;;;;;;;2.60;2.40;;;;;;;19.93;54.07;95728.72;5007625;28;20234;-86
2023/06/29 00:22:28;;;;;;;3.50;2.60;;;;;;;19.97;54.11;95740.31;5008616;28;20229;-85
2023/06/29 00:24:56;;;;;;;2.45;2.25;;;;;;;19.99;53.74;95733.03;5008657;28;20218;-86
2023/06/29 00:27:24;;;;;;;2.88;2.10;;;;;;;19.96;53.65;95733.50;5022031;28;20224;-86
2023/06/29 00:29:51;;;;;;;3.00;2.38;;;;;;;19.93;53.84;95733.94;5032451;28;20706;-86
2023/06/29 00:32:17;;;;;;;3.05;2.35;;;;;;;19.96;53.77;95738.72;5032357;28;20310;-86
2023/06/29 00:34:44;;;;;;;3.40;2.50;;;;;;;19.89;54.04;95732.03;5019353;28;20210;-86
2023/06/29 00:37:11;;;;;;;2.40;2.20;;;;;;;19.85;54.17;95733.50;5012750;28;20222;-87
2023/06/29 00:39:38;;;;;;;2.25;1.88;;;;;;;19.86;54.13;95730.66;5013096;28;20210;-86
2023/06/29 00:42:05;;;;;;;3.00;2.70;;;;;;;19.78;54.62;95728.44;5012309;28;20218;-88
2023/06/29 00:44:33;;;;;;;2.47;2.28;;;;;;;19.69;54.86;95726.38;5012722;28;20615;-86
2023/06/29 00:47:00;;;;;;;2.97;2.53;;;;;;;19.69;54.99;95721.16;5012017;28;20199;-85
2023/06/29 00:49:27;;;;;;;2.78;2.58;;;;;;;19.69;54.91;95721.94;5012073;28;20202;-85
2023/06/29 00:51:55;;;;;;;3.10;2.50;;;;;;;19.73;54.71;95722.28;5011323;28;20218;-86
2023/06/29 00:54:22;;;;;;;2.53;2.33;;;;;;;19.63;55.03;95722.84;5012083;28;20199;-85
2023/06/29 00:56:49;;;;;;;2.75;2.50;;;;;;;19.67;54.87;95716.16;5011521;28;20257;-86
2023/06/29 00:59:16;;;;;;;3.65;2.35;;;;;;;19.73;54.83;95727.50;5011819;28;20198;-86
2023/06/29 01:01:45;;;;;;;2.63;2.35;;;;;;;19.64;54.83;95722.63;5011869;28;20230;-86
2023/06/29 01:04:17;;;;;;;2.50;2.30;;;;;;;19.70;54.64;95718.31;5012259;28;20199;-85
2023/06/29 01:06:49;;;;;;;3.25;2.50;;;;;;;19.67;54.69;95719.56;5010627;28;20207;-85
2023/06/29 01:09:16;;;;;;;2.53;2.33;;;;;;;19.70;54.54;95726.16;5011967;28;20206;-85
2023/06/29 01:11:43;;;;;;;4.38;2.38;;;;;;;19.61;54.84;95715.28;5011570;28;20233;-86
2023/06/29 01:14:12;;;;;;;3.50;2.40;;;;;;;19.58;54.86;95713.13;5012255;28;20195;-86
2023/06/29 01:16:39;;;;;;;3.90;2.50;;;;;;;19.55;55.18;95712.78;5011623;28;20731;-85
2023/06/29 01:19:10;;;;;;;4.03;2.30;;;;;;;19.50;55.24;95710.06;5012145;28;20206;-85
2023/06/29 01:21:45;;;;;;;2.83;2.63;;;;;;;19.50;55.54;95710.84;5010975;28;20214;-85
2023/06/29 01:24:14;;;;;;;2.85;2.35;;;;;;;19.49;55.10;95709.22;5010895;28;20206;-85
2023/06/29 01:26:42;;;;;;;2.50;2.30;;;;;;;19.47;55.71;95715.69;5018700;28;20197;-86
2023/06/29 01:29:08;;;;;;;2.78;2.13;;;;;;;19.42;55.45;95705.97;5031350;28;20277;-85
2023/06/29 01:31:35;;;;;;;2.97;2.28;;;;;;;19.43;55.59;95706.75;5028435;28;20585;-85
2023/06/29 01:34:01;;;;;;;3.88;2.55;;;;;;;19.35;55.70;95704.47;5011501;28;20862;-85
2023/06/29 01:36:36;;;;;;;2.35;2.15;;;;;;;19.33;55.53;95707.31;5011158;28;20285;-85
2023/06/29 01:39:06;;;;;;;3.25;2.30;;;;;;;19.26;55.99;95698.78;5000242;28;20555;-86
2023/06/29 01:41:39;;;;;;;3.65;2.53;;;;;;;19.28;55.91;95697.53;5011507;28;20226;-86
2023/06/29 01:44:10;;;;;;;2.47;2.28;;;;;;;19.27;55.99;95701.19;5011200;28;20202;-86
2023/06/29 01:46:39;;;;;;;2.58;2.25;;;;;;;19.26;56.13;95701.41;5011211;28;20780;-85
2023/06/29 01:49:06;;;;;;;3.85;2.50;;;;;;;19.24;55.94;95701.63;5011780;28;20203;-85
2023/06/29 01:51:32;;;;;;;2.50;2.30;;;;;;;19.18;56.37;95699.16;5011296;28;20223;-85
2023/06/29 01:53:59;;;;;;;2.88;2.50;;;;;;;19.13;56.68;95688.59;5010653;28;20209;-85
2023/06/29 01:56:25;;;;;;;2.53;2.33;;;;;;;19.15;56.46;95689.94;5009964;28;20226;-86
2023/06/29 01:58:52;;;;;;;2.58;2.20;;;;;;;19.15;56.37;95687.34;5011108;28;20214;-85
2023/06/29 02:01:20;;;;;;;2.65;2.20;;;;;;;19.19;56.54;95691.09;5010716;28;20751;-85
2023/06/29 02:03:46;;;;;;;2.45;2.15;;;;;;;19.19;56.50;95685.06;5011230;28;20214;-85
2023/06/29 02:06:13;;;;;;;3.50;2.60;;;;;;;19.17;56.61;95684.50;5010803;28;20587;-85
2023/06/29 02:08:39;;;;;;;2.72;2.53;;;;;;;19.09;56.46;95685.63;5011163;28;20241;-86
2023/06/29 02:11:06;;;;;;;3.17;2.35;;;;;;;18.85;57.51;95686.66;5009558;28;20219;-86
2023/06/29 02:13:32;;;;;;;2.72;2.30;;;;;;;18.88;57.61;95680.97;5010694;28;20207;-86
2023/06/29 02:15:59;;;;;;;4.93;2.38;;;;;;;18.92;57.25;95680.28;5010791;28;20234;-85
2023/06/29 02:18:26;;;;;;;2.78;2.50;;;;;;;18.93;57.45;95684.50;5011090;28;20203;-85
2023/06/29 02:20:54;;;;;;;2.58;2.30;;;;;;;18.85;57.81;95690.06;5009726;28;20222;-86
2023/06/29 02:23:20;;;;;;;2.55;2.33;;;;;;;18.85;57.93;95687.44;5010913;28;20738;-85
2023/06/29 02:25:47;;;;;;;3.47;2.30;;;;;;;18.92;57.59;95685.50;5011090;28;20211;-86
2023/06/29 02:28:13;;;;;;;2.78;2.25;;;;;;;18.89;57.61;95683.34;5007575;28;20218;-85
2023/06/29 02:30:39;;;;;;;3.40;2.45;;;;;;;18.90;57.67;95674.50;5010357;28;20708;-85
2023/06/29 02:33:06;;;;;;;2.53;2.28;;;;;;;18.95;57.43;95679.06;5010608;28;20214;-86
2023/06/29 02:35:34;;;;;;;5.65;2.40;;;;;;;18.96;57.33;95678.81;5010206;28;20198;-86
2023/06/29 02:38:00;;;;;;;2.80;2.60;;;;;;;18.90;57.85;95673.72;5010234;28;20227;-85
2023/06/29 02:40:27;;;;;;;2.63;2.33;;;;;;;18.95;57.39;95671.22;5010321;28;20305;-85
2023/06/29 02:42:53;;;;;;;2.95;2.33;;;;;;;19.00;57.22;95675.78;5008598;28;20203;-86
2023/06/29 02:45:20;;;;;;;3.00;2.20;;;;;;;18.98;57.16;95665.56;5010137;28;20218;-87
2023/06/29 02:47:46;;;;;;;2.90;2.45;;;;;;;19.00;57.15;95670.56;5010510;28;20203;-85
2023/06/29 02:50:12;;;;;;;3.28;2.70;;;;;;;19.02;56.91;95664.09;5009722;28;20206;-87
2023/06/29 02:52:40;;;;;;;3.17;2.42;;;;;;;19.00;56.89;95666.13;5010392;28;20216;-85
2023/06/29 02:55:07;;;;;;;2.50;2.30;;;;;;;18.90;57.49;95668.50;5010401;28;20580;-86
2023/06/29 02:57:34;;;;;;;2.75;2.35;;;;;;;18.86;57.42;95662.13;5010206;28;20230;-86
2023/06/29 03:00:00;;;;;;;3.47;2.30;;;;;;;18.82;57.91;95664.41;5009233;28;20221;-86
2023/06/29 03:02:26;;;;;;;2.78;2.47;;;;;;;18.80;57.90;95663.84;5009687;28;20223;-85
2023/06/29 03:04:53;;;;;;;3.55;2.25;;;;;;;18.76;58.22;95662.69;5009838;28;20203;-86
2023/06/29 03:07:19;;;;;;;3.13;2.13;;;;;;;18.76;57.63;95662.69;5010031;28;20577;-87
2023/06/29 03:09:47;;;;;;;2.92;2.15;;;;;;;18.80;57.75;95668.28;5009734;28;20206;-85
2023/06/29 03:12:13;;;;;;;2.72;2.25;;;;;;;18.79;57.60;95669.28;5009905;28;20222;-85
2023/06/29 03:14:40;;;;;;;3.28;2.25;;;;;;;18.79;58.16;95666.69;5009510;28;20225;-85
2023/06/29 03:17:08;;;;;;;3.70;2.50;;;;;;;18.87;57.71;95667.13;5009159;28;20246;-86
2023/06/29 03:19:34;;;;;;;2.90;2.30;;;;;;;18.82;58.26;95666.22;5008710;28;20210;-86
2023/06/29 03:22:00;;;;;;;2.83;2.35;;;;;;;18.85;57.97;95665.78;5009463;28;20222;-85
2023/06/29 03:24:27;;;;;;;4.28;2.65;;;;;;;18.84;58.15;95656.38;5003780;28;20553;-85
2023/06/29 03:26:55;;;;;;;4.30;2.25;;;;;;;18.84;57.96;95662.38;4986336;28;20226;-85
2023/06/29 03:29:21;;;;;;;3.75;2.40;;;;;;;18.86;57.76;95662.91;5029528;28;20205;-85
2023/06/29 03:31:47;;;;;;;2.67;2.25;;;;;;;18.86;57.64;95667.34;5019621;28;20288;-86
2023/06/29 03:34:14;;;;;;;2.47;2.10;;;;;;;18.80;57.55;95663.06;5009506;28;20209;-85
2023/06/29 03:36:40;;;;;;;2.50;2.10;;;;;;;18.82;57.85;95667.03;5009485;28;20283;-87
2023/06/29 03:39:07;;;;;;;2.80;2.30;;;;;;;18.80;57.98;95660.44;5009120;28;20199;-85
2023/06/29 03:41:33;;;;;;;3.97;2.50;;;;;;;18.74;58.33;95663.94;5009403;28;20309;-84
2023/06/29 03:44:01;;;;;;;3.08;2.40;;;;;;;18.75;57.71;95665.53;5009489;28;20214;-85
2023/06/29 03:46:28;;;;;;;2.78;2.42;;;;;;;18.75;57.89;95665.53;5009123;28;20680;-85
2023/06/29 03:48:54;;;;;;;2.50;2.28;;;;;;;18.62;58.16;95663.94;5007968;28;20221;-86
2023/06/29 03:51:20;;;;;;;2.85;2.42;;;;;;;18.53;59.10;95662.63;5008751;28;20253;-86
2023/06/29 03:53:47;;;;;;;4.50;2.63;;;;;;;18.56;58.65;95662.19;5009559;28;20692;-86
2023/06/29 03:56:13;;;;;;;3.03;2.40;;;;;;;18.57;57.95;95663.78;5009304;28;20202;-85
2023/06/29 03:58:40;;;;;;;2.60;2.40;;;;;;;18.58;58.21;95665.38;5008976;28;20206;-88
2023/06/29 04:01:07;;;;;;;2.88;2.55;;;;;;;18.67;57.95;95661.44;5009215;28;20230;-87
2023/06/29 04:03:34;;;;;;;2.78;2.05;;;;;;;18.69;57.75;95664.59;5007937;28;20576;-85
2023/06/29 04:06:00;;;;;;;3.45;2.40;;;;;;;18.67;57.68;95660.63;5009351;28;20263;-86
2023/06/29 04:08:27;;;;;;;2.58;2.15;;;;;;;18.68;57.71;95649.19;5010198;28;20201;-85
2023/06/29 04:10:54;;;;;;;2.80;2.40;;;;;;;18.76;57.86;95656.69;5009529;28;20222;-85
2023/06/29 04:13:20;;;;;;;5.10;2.92;;;;;;;18.77;57.80;95658.28;5009832;28;20249;-86
2023/06/29 04:15:47;;;;;;;3.55;2.38;;;;;;;18.72;57.87;95655.53;5009147;28;20691;-86
2023/06/29 04:18:15;;;;;;;3.53;2.30;;;;;;;18.74;57.35;95656.13;5009932;28;20226;-85
2023/06/29 04:20:41;;;;;;;3.50;2.28;;;;;;;18.72;57.92;95653.72;5004662;28;20222;-84
2023/06/29 04:23:11;;;;;;;3.47;2.38;;;;;;;18.75;57.54;95657.72;5008938;28;20241;-86
2023/06/29 04:25:42;;;;;;;2.58;2.20;;;;;;;18.78;57.47;95660.66;5009235;28;20229;-85
2023/06/29 04:28:12;;;;;;;4.07;2.50;;;;;;;18.77;57.69;95653.84;5027704;28;20201;-85
2023/06/29 04:30:40;;;;;;;3.03;2.10;;;;;;;18.81;57.35;95656.81;5029067;28;20284;-87
2023/06/29 04:33:09;;;;;;;3.95;2.40;;;;;;;18.82;57.24;95653.97;5028909;28;20198;-85
2023/06/29 04:35:39;;;;;;;2.75;2.20;;;;;;;18.91;56.98;95652.59;5016456;28;20253;-86
2023/06/29 04:38:05;;;;;;;4.20;2.17;;;;;;;18.94;56.83;95653.97;5009054;28;20657;-85
2023/06/29 04:40:32;;;;;;;4.45;2.60;;;;;;;18.95;57.27;95651.13;5009104;28;20230;-85
2023/06/29 04:42:59;;;;;;;4.13;2.92;;;;;;;19.03;56.70;95650.03;5008989;28;20214;-85
2023/06/29 04:45:25;;;;;;;3.25;2.25;;;;;;;19.03;56.84;95651.84;5009318;28;20203;-86
2023/06/29 04:47:52;;;;;;;3.55;2.40;;;;;;;19.12;56.58;95647.84;5008766;28;20210;-86
2023/06/29 04:50:24;;;;;;;3.33;2.22;;;;;;;19.20;56.20;95642.28;5009075;28;20198;-86
2023/06/29 04:52:53;;;;;;;3.45;2.67;;;;;;;19.23;55.99;95644.44;5007613;28;20286;-85
2023/06/29 04:55:22;;;;;;;2.33;2.13;;;;;;;19.28;56.25;95644.53;5008426;28;20203;-85
2023/06/29 04:57:48;;;;;;;3.65;2.40;;;;;;;19.34;55.79;95641.00;5008705;28;20223;-86
2023/06/29 05:00:16;;;;;;;2.20;2.00;;;;;;;19.43;55.57;95641.47;5008821;28;20296;-85
2023/06/29 05:02:42;;;;;;;2.75;2.38;;;;;;;19.52;55.60;95646.13;5008338;28;20207;-86
2023/06/29 05:05:12;;;;;;;3.22;2.60;;;;;;;19.64;55.21;95651.31;5009278;28;20198;-85
2023/06/29 05:07:39;;;;;;;3.85;2.53;;;;;;;19.66;55.51;95646.66;5008555;28;20258;-86
2023/06/29 05:10:12;;;;;;;4.25;2.63;;;;;;;19.68;55.35;95647.22;5008287;28;20211;-85
2023/06/29 05:12:38;;;;;;;4.18;2.63;;;;;;;19.76;55.05;95641.63;5009251;28;20202;-86
2023/06/29 05:15:06;;;;;;;2.40;2.20;;;;;;;19.80;54.74;95641.97;5011045;28;20217;-86
2023/06/29 05:17:32;;;;;;;3.05;2.38;;;;;;;19.89;54.55;95635.34;5012020;28;20305;-86
2023/06/29 05:19:59;;;;;;;3.92;2.33;;;;;;;19.85;54.63;95636.81;5009397;28;20201;-85
2023/06/29 05:22:25;;;;;;;3.70;2.10;;;;;;;20.01;54.29;95633.47;4992131;28;20226;-86
2023/06/29 05:24:52;;;;;;;2.60;2.40;;;;;;;20.15;54.08;95636.59;5000590;28;20218;-87
2023/06/29 05:27:22;;;;;;;4.07;2.40;;;;;;;20.13;54.04;95634.22;5017943;28;20730;-85
2023/06/29 05:29:51;;;;;;;2.75;2.22;;;;;;;20.28;53.60;95639.69;5031494;28;20210;-86
2023/06/29 05:32:18;;;;;;;3.20;2.20;;;;;;;20.43;53.24;95643.63;5026085;28;20285;-85
2023/06/29 05:34:44;;;;;;;4.18;2.30;;;;;;;20.40;52.81;95633.66;5011663;28;20207;-86
2023/06/29 05:37:10;;;;;;;4.95;2.33;;;;;;;20.45;52.47;95637.13;5011890;28;20230;-86
2023/06/29 05:39:37;;;;;;;2.70;2.35;;;;;;;20.47;52.75;95631.66;5011393;28;20214;-85
2023/06/29 05:42:04;;;;;;;3.15;2.28;;;;;;;20.53;51.83;95635.97;5009696;28;20233;-86
2023/06/29 05:44:32;;;;;;;3.53;2.53;;;;;;;20.64;51.80;95635.88;5011742;28;20691;-86
2023/06/29 05:46:58;;;;;;;2.33;2.20;;;;;;;20.84;51.76;95634.59;5011025;28;20211;-85
2023/06/29 05:49:25;;;;;;;3.58;2.35;;;;;;;20.98;51.32;95636.63;5012243;28;20703;-86
2023/06/29 05:51:51;;;;;;;2.50;1.88;;;;;;;21.01;50.88;95630.94;5011300;28;20223;-85
2023/06/29 05:54:18;;;;;;;2.83;2.40;;;;;;;21.11;50.66;95622.44;5011079;28;20592;-86
2023/06/29 05:56:45;;;;;;;4.43;2.30;;;;;;;21.17;51.13;95631.13;5009641;28;20249;-85
2023/06/29 05:59:11;;;;;;;3.78;2.30;;;;;;;21.19;50.39;95622.00;5010613;28;20210;-87
2023/06/29 06:01:39;;;;;;;3.00;2.15;;;;;;;21.31;50.69;95624.56;5010415;28;20223;-86
2023/06/29 06:04:05;;;;;;;2.58;2.13;;;;;;;21.46;50.29;95632.59;5010948;28;20210;-85
2023/06/29 06:06:32;;;;;;;3.40;2.50;;;;;;;21.43;49.89;95624.44;5010772;28;20331;-86
2023/06/29 06:08:59;;;;;;;3.30;2.30;;;;;;;21.49;49.91;95626.88;5010524;28;20206;-86
2023/06/29 06:11:26;;;;;;;3.63;2.60;;;;;;;21.48;49.09;95627.91;5010461;28;20857;-85
2023/06/29 06:13:52;;;;;;;3.22;2.58;;;;;;;21.53;49.68;95628.00;5009541;28;20228;-86
2023/06/29 06:16:18;;;;;;;3.40;2.40;;;;;;;21.61;49.62;95627.53;5010251;28;20257;-86
2023/06/29 06:18:46;;;;;;;3.15;2.40;;;;;;;21.68;48.93;95627.38;5010957;28;20638;-86
2023/06/29 06:21:13;;;;;;;2.63;2.40;;;;;;;21.78;49.62;95629.28;5009633;28;20639;-86
2023/06/29 06:23:40;;;;;;;3.67;2.40;;;;;;;21.92;49.16;95625.28;5010378;28;20206;-86
2023/06/29 06:26:06;;;;;;;5.18;2.40;;;;;;;22.05;48.81;95623.09;5012555;28;20578;-86
2023/06/29 06:28:33;;;;;;;3.78;2.70;;;;;;;22.10;48.76;95622.34;5026016;28;20691;-86
2023/06/29 06:30:59;;;;;;;4.07;2.67;;;;;;;22.17;48.65;95619.50;5009538;28;20755;-86
2023/06/29 06:33:30;;;;;;;3.95;2.20;;;;;;;22.17;47.99;95620.28;5010440;28;20195;-86
2023/06/29 06:35:59;;;;;;;2.90;2.30;;;;;;;22.12;47.23;95619.47;5010536;28;20195;-85
2023/06/29 06:38:25;;;;;;;3.13;2.60;;;;;;;22.14;47.38;95617.38;5009845;28;20686;-86
2023/06/29 06:40:52;;;;;;;5.65;2.28;;;;;;;22.30;47.50;95621.75;5009438;28;20233;-86
2023/06/29 06:43:18;;;;;;;2.70;2.10;;;;;;;22.33;46.48;95614.16;5009987;28;20202;-86
2023/06/29 06:45:45;;;;;;;3.05;2.13;;;;;;;22.43;46.58;95607.41;5008589;28;20215;-86
2023/06/29 06:48:11;;;;;;;4.38;2.50;;;;;;;22.39;46.43;95607.13;5009980;28;20210;-86
2023/06/29 06:50:38;;;;;;;3.35;2.60;;;;;;;22.41;46.43;95607.66;5009715;28;20256;-86
2023/06/29 06:53:06;;;;;;;4.82;2.60;;;;;;;22.44;46.08;95609.78;5009382;28;20213;-86
2023/06/29 06:55:32;;;;;;;2.95;2.30;;;;;;;22.51;45.94;95607.75;5009816;28;20215;-85
2023/06/29 06:57:58;;;;;;;2.63;2.10;;;;;;;22.47;46.19;95606.66;5009979;28;20572;-86
2023/06/29 07:00:28;;;;;;;2.53;2.33;;;;;;;22.47;44.91;95608.50;5010000;28;20213;-86
2023/06/29 07:02:54;;;;;;;4.07;2.35;;;;;;;22.52;45.51;95605.91;5009962;28;20202;-86
2023/06/29 07:05:21;;;;;;;2.72;2.00;;;;;;;22.56;45.90;95599.91;5011189;28;20631;-86
2023/06/29 07:07:47;;;;;;;3.72;2.42;;;;;;;22.60;45.15;95610.69;5009923;28;20203;-86
2023/06/29 07:10:15;;;;;;;3.15;2.22;;;;;;;22.68;44.91;95605.78;5010551;28;20203;-86
2023/06/29 07:12:41;;;;;;;2.67;2.03;;;;;;;22.73;45.14;95610.25;5009997;28;20199;-86
2023/06/29 07:15:09;;;;;;;2.60;2.08;;;;;;;22.73;43.29;95603.19;5009408;28;20215;-86
2023/06/29 07:17:35;;;;;;;5.20;2.63;;;;;;;22.74;43.70;95594.25;5008312;28;20219;-85
2023/06/29 07:20:03;;;;;;;2.47;2.20;;;;;;;22.75;43.48;95595.84;5008502;28;20211;-87
2023/06/29 07:22:30;;;;;;;3.45;2.30;;;;;;;22.82;42.76;95602.75;5008943;28;20304;-86
2023/06/29 07:24:57;;;;;;;3.63;1.83;;;;;;;22.82;40.58;95598.28;5009413;28;20867;-86
2023/06/29 07:27:25;;;;;;;2.40;1.95;;;;;;;22.84;41.02;95590.97;5022165;28;20202;-87
2023/06/29 07:29:51;;;;;;;2.90;1.90;;;;;;;22.86;41.23;95607.25;5029186;28;20221;-86
2023/06/29 07:32:17;;;;;;;2.30;2.10;;;;;;;22.94;42.05;95598.09;5008624;28;20223;-86
2023/06/29 07:34:44;;;;;;;3.15;2.00;;;;;;;23.03;40.41;95600.00;5006199;28;20709;-86
2023/06/29 07:37:10;;;;;;;4.05;1.90;;;;;;;23.06;40.46;95594.25;5008202;28;20210;-86
2023/06/29 07:39:37;;;;;;;2.72;1.88;;;;;;;23.13;40.76;95590.56;5008933;28;20221;-86
2023/06/29 07:42:04;;;;;;;2.83;2.00;;;;;;;23.25;40.38;95588.56;5009020;28;20751;-86
2023/06/29 07:44:32;;;;;;;2.58;2.00;;;;;;;23.32;40.03;95579.38;5008770;28;20226;-86
2023/06/29 07:46:59;;;;;;;2.92;2.15;;;;;;;23.45;40.32;95582.59;5008607;28;20198;-86
2023/06/29 07:49:25;;;;;;;2.38;1.90;;;;;;;23.47;38.72;95588.41;5008069;28;20194;-86
2023/06/29 07:51:52;;;;;;;2.95;2.10;;;;;;;23.55;38.89;95588.69;5008230;28;20720;-85
2023/06/29 07:54:18;;;;;;;3.15;1.80;;;;;;;23.65;38.93;95583.50;5008863;28;20217;-85
2023/06/29 07:56:45;;;;;;;2.50;1.80;;;;;;;23.72;37.87;95585.84;5008866;28;20202;-86
2023/06/29 07:59:11;;;;;;;2.72;1.95;;;;;;;23.81;38.06;95586.16;5008605;28;20229;-86
2023/06/29 08:01:39;;;;;;;3.17;2.20;;;;;;;23.88;37.28;95581.41;5008486;28;20253;-86
2023/06/29 08:04:06;;;;;;;2.60;1.73;;;;;;;23.90;36.10;95579.31;5009165;28;20202;-86
2023/06/29 08:06:33;;;;;;;3.78;1.83;;;;;;;24.05;35.90;95574.88;5007189;28;20710;-86
2023/06/29 08:09:00;;;;;;;6.05;1.85;;;;;;;24.08;36.06;95573.56;5010680;28;20406;-86
2023/06/29 08:11:27;;;;;;;2.38;1.77;;;;;;;24.16;35.17;95580.97;5008931;28;20229;-86
2023/06/29 08:13:53;;;;;;;5.43;2.10;;;;;;;24.25;35.49;95578.59;5008163;28;20203;-85
2023/06/29 08:16:19;;;;;;;2.03;1.83;;;;;;;24.41;36.68;95570.47;5008444;28;20206;-86
2023/06/29 08:18:47;;;;;;;2.55;1.92;;;;;;;24.65;36.38;95569.91;5008661;28;20223;-85
2023/06/29 08:21:14;;;;;;;2.08;1.70;;;;;;;24.68;36.02;95566.75;5006705;28;20214;-86
2023/06/29 08:23:40;;;;;;;2.80;1.95;;;;;;;24.72;35.92;95567.81;5004439;28;20420;-86
2023/06/29 08:26:06;;;;;;;1.88;1.70;;;;;;;24.88;36.24;95558.03;5011132;28;20213;-87
2023/06/29 08:28:33;;;;;;;2.97;2.05;;;;;;;24.95;35.89;95558.59;5012418;28;20211;-86
2023/06/29 08:30:59;;;;;;;3.08;2.08;;;;;;;25.05;35.16;95558.53;5004684;28;20218;-86
2023/06/29 08:33:26;;;;;;;2.33;2.10;;;;;;;25.14;34.90;95562.22;5008506;28;20210;-86
2023/06/29 08:35:53;;;;;;;4.43;2.00;;;;;;;25.19;34.49;95551.66;5008511;28;20710;-86
2023/06/29 08:38:20;;;;;;;3.22;2.00;;;;;;;25.32;33.44;95548.44;5007306;28;20222;-86
2023/06/29 08:40:48;;;;;;;2.25;1.75;;;;;;;25.45;33.35;95561.03;5008514;28;20581;-85
2023/06/29 08:43:21;;;;;;;2.10;1.80;;;;;;;25.43;32.31;95555.25;5008397;28;20198;-86
2023/06/29 08:45:47;;;;;;;2.03;1.80;;;;;;;25.60;33.13;95548.84;5008467;28;20706;-85
2023/06/29 08:48:15;;;;;;;2.20;1.77;;;;;;;25.72;32.68;95544.84;5008784;28;20203;-86
2023/06/29 08:50:46;;;;;;;2.08;1.67;;;;;;;25.79;33.22;95547.97;5011558;28;20607;-85
2023/06/29 08:53:14;;;;;;;2.08;1.80;;;;;;;25.95;32.92;95540.75;5012145;28;20203;-86
2023/06/29 08:55:42;;;;;;;2.00;1.80;;;;;;;25.98;31.55;95542.06;5010609;28;20214;-85
2023/06/29 08:58:09;;;;;;;2.97;1.80;;;;;;;25.86;31.55;95529.19;5011801;28;20227;-86
2023/06/29 09:00:37;;;;;;;2.20;1.98;;;;;;;25.94;31.63;95538.41;5011963;28;20691;-86
2023/06/29 09:03:04;;;;;;;2.42;2.22;;;;;;;26.11;32.61;95531.66;5011964;28;20207;-86
2023/06/29 09:05:31;;;;;;;1.80;1.70;;;;;;;25.98;31.60;95534.91;5011370;28;20763;-86
2023/06/29 09:07:57;;;;;;;3.53;1.80;;;;;;;26.15;32.11;95526.63;5011664;28;20676;-86
2023/06/29 09:10:25;;;;;;;3.60;1.75;;;;;;;26.36;32.03;95522.00;5010694;28;20202;-86
2023/06/29 09:12:53;;;;;;;2.58;2.00;;;;;;;26.40;31.96;95520.38;5011301;28;20269;-86
2023/06/29 09:15:19;;;;;;;1.80;1.70;;;;;;;26.33;31.95;95519.91;5011850;28;20234;-86
2023/06/29 09:17:46;;;;;;;5.85;2.30;;;;;;;26.24;31.51;95518.91;5011576;28;20202;-86
2023/06/29 09:20:18;;;;;;;4.28;1.80;;;;;;;26.37;32.61;95515.63;5010503;28;20210;-86
2023/06/29 09:22:49;;;;;;;3.20;2.00;;;;;;;26.63;32.08;95511.69;5011400;28;20198;-86
2023/06/29 09:25:17;;;;;;;2.10;1.90;;;;;;;26.75;31.31;95511.31;5011277;28;20198;-86
2023/06/29 09:27:44;;;;;;;2.65;1.80;;;;;;;26.72;30.41;95506.59;5011525;28;20210;-86
2023/06/29 09:30:20;;;;;;;2.67;2.47;;;;;;;26.67;30.73;95502.16;5011380;28;20221;-85
2023/06/29 09:32:46;;;;;;;2.33;2.10;;;;;;;26.76;31.38;95497.81;4994009;28;20661;-86
2023/06/29 09:35:13;;;;;;;5.43;1.98;;;;;;;26.74;30.86;95505.25;4991896;28;20208;-86
2023/06/29 09:37:40;;;;;;;3.13;2.10;;;;;;;26.66;30.35;95503.22;4991506;28;20207;-86
2023/06/29 09:40:12;;;;;;;2.28;1.90;;;;;;;26.91;31.06;95507.47;4991114;28;20290;-86
2023/06/29 09:42:39;;;;;;;3.15;2.67;;;;;;;26.95;29.53;95512.97;4996936;28;20222;-86
2023/06/29 09:45:14;;;;;;;2.35;1.90;;;;;;;27.00;30.09;95505.00;5010794;28;20664;-87
2023/06/29 09:47:42;;;;;;;2.20;2.00;;;;;;;27.22;29.51;95502.63;5011094;28;20209;-86
2023/06/29 09:50:18;;;;;;;1.98;1.80;;;;;;;27.51;29.70;95500.69;5011323;28;20199;-87
2023/06/29 09:52:50;;;;;;;2.38;1.80;;;;;;;27.44;29.37;95494.94;5010559;28;20214;-86
2023/06/29 09:55:18;;;;;;;2.10;1.90;;;;;;;27.69;29.42;95495.69;5010570;28;20293;-86
2023/06/29 09:57:46;;;;;;;2.42;2.03;;;;;;;27.67;28.58;95493.34;5010594;28;20213;-87
2023/06/29 10:00:14;;;;;;;4.97;2.28;;;;;;;27.73;29.17;95486.88;5008385;28;20251;-86
2023/06/29 10:02:41;;;;;;;3.47;2.00;;;;;;;27.72;28.78;95495.09;5010599;28;20219;-86
2023/06/29 10:05:08;;;;;;;4.32;1.83;;;;;;;27.90;28.38;95489.03;5010766;28;20207;-86
2023/06/29 10:07:37;;;;;;;2.25;1.90;;;;;;;27.90;27.87;95494.31;5010172;28;20213;-87
2023/06/29 10:10:05;;;;;;;4.07;1.83;;;;;;;27.89;27.15;95481.38;5010362;28;20199;-86
2023/06/29 10:12:33;;;;;;;2.88;1.83;;;;;;;27.88;27.61;95479.81;5010356;28;20237;-86
2023/06/29 10:15:12;;;;;;;3.08;2.00;;;;;;;27.85;27.09;95476.66;5009081;28;20195;-86
2023/06/29 10:17:52;;;;;;;3.47;2.05;;;;;;;28.08;27.87;95461.75;5010561;28;20207;-86
2023/06/29 10:20:21;;;;;;;3.30;1.75;;;;;;;28.39;28.17;95467.31;5009076;28;20610;-87
2023/06/29 10:22:49;;;;;;;1.83;1.60;;;;;;;28.42;27.16;95463.31;5010464;28;20298;-87
2023/06/29 10:25:21;;;;;;;2.38;1.60;;;;;;;28.24;28.04;95470.25;5010236;28;20206;-86
2023/06/29 10:27:49;;;;;;;4.25;2.08;;;;;;;28.10;27.26;95461.44;5026400;28;20194;-86
2023/06/29 10:30:19;;;;;;;1.95;1.80;;;;;;;28.37;28.32;95466.81;5020043;28;20195;-86
2023/06/29 10:32:49;;;;;;;2.33;2.00;;;;;;;28.61;27.78;95457.94;5009251;28;20245;-87
2023/06/29 10:35:15;;;;;;;3.30;1.90;;;;;;;28.74;27.92;95460.59;5010118;28;20199;-86
2023/06/29 10:37:44;;;;;;;2.78;2.13;;;;;;;28.72;27.36;95449.50;5010231;28;20211;-86
2023/06/29 10:40:14;;;;;;;2.38;2.00;;;;;;;28.64;26.77;95444.91;5009732;28;20226;-86
2023/06/29 10:42:55;;;;;;;2.03;1.83;;;;;;;28.63;26.39;95451.28;5009709;28;20226;-86
2023/06/29 10:45:34;;;;;;;2.50;1.90;;;;;;;28.53;26.19;95438.97;5009452;28;20209;-86
2023/06/29 10:48:04;;;;;;;2.05;1.85;;;;;;;28.41;26.57;95448.50;5008894;28;20317;-87
2023/06/29 10:50:31;;;;;;;2.20;2.00;;;;;;;28.45;27.15;95438.91;5009548;28;20206;-87
2023/06/29 10:52:59;;;;;;;2.10;1.67;;;;;;;28.71;26.79;95441.84;5009825;28;20676;-86
2023/06/29 10:55:28;;;;;;;6.15;1.92;;;;;;;28.71;27.32;95442.63;5009999;28;20261;-86
2023/06/29 10:57:56;;;;;;;2.10;1.83;;;;;;;28.77;26.86;95440.66;5009403;28;20302;-86
2023/06/29 11:00:24;;;;;;;2.28;1.80;;;;;;;28.74;26.43;95447.34;5009781;28;20222;-86
2023/06/29 11:02:51;;;;;;;2.47;2.20;;;;;;;28.63;26.97;95442.53;5008339;28;20206;-86
2023/06/29 11:05:29;;;;;;;3.83;2.78;;;;;;;28.73;26.57;95445.75;5009087;28;20217;-86
2023/06/29 11:07:56;;;;;;;3.65;2.05;;;;;;;28.93;26.59;95441.97;5009372;28;20690;-86
2023/06/29 11:10:23;;;;;;;3.38;1.90;;;;;;;29.03;25.87;95439.13;5009153;28;20199;-86
2023/06/29 11:12:51;;;;;;;2.90;2.00;;;;;;;28.94;25.64;95435.56;5009084;28;20195;-86
2023/06/29 11:15:22;;;;;;;5.47;1.77;;;;;;;28.98;25.98;95433.91;5009397;28;20203;-87
2023/06/29 11:18:15;;;;;;;;;;;;;;;;;;;;;
2023/06/29 11:20:55;;;;;;;2.88;1.90;;;;;;;29.29;26.14;95433.25;5006634;28;20230;-87
2023/06/29 11:23:55;;;;;;;1.90;1.80;;;;;;;29.00;25.61;95428.31;4989870;28;20299;-86
2023/06/29 11:26:29;;;;;;;2.05;1.90;;;;;;;29.18;25.28;95425.53;4965912;28;20201;-87
2023/06/29 11:29:10;;;;;;;2.65;1.70;;;;;;;29.37;25.21;95420.09;5009425;28;20672;-86
2023/06/29 11:31:36;;;;;;;2.05;1.88;;;;;;;29.45;25.05;95426.56;5009176;28;20234;-86
2023/06/29 11:34:25;;;;;;;3.30;1.80;;;;;;;29.57;25.26;95418.09;5009182;28;20671;-86
2023/06/29 11:37:29;;;;;;;1.98;1.80;;;;;;;29.51;24.64;95415.53;5007015;28;20215;-87